• Join FlightAware (Why Join?)
  • Login
  • US Flag 
Gobble Gobble! 
05:34PM EST


 

Airport Tracker/Info


-or-


 

Live Flight TrackerFlight Track Log ✈ N2708Y ✈ 04-May-2013 ✈ KGRB - KEGV

Flight Track Log - Related Links

Times and Time Zones

All times are in EDT time to prevent confusion due to time zone crossing. See the N2708Y flight status page for this flight to view local times or setup timezone preferences in your user account.

Time Position Orientation Groundspeed Altitude Reporting Facility
EDT Latitude Longitude Course Direction KTS MPH feet Rate Location/Type
02:45PM 44.6014 -88.2169 331° Northwest 204 235 3,700  Level Minneapolis Center
02:46PM 44.6436 -88.2533 328° Northwest 179 206 4,500 780 Climbing Minneapolis Center
02:47PM 44.6864 -88.2856 332° Northwest 176 203 5,400 720 Climbing Minneapolis Center
02:48PM 44.6811 -88.2817 332° Northwest  Level FlightAware Approximate
02:48PM 44.7353 -88.3272 329° Northwest 177 204 6,100  Level Minneapolis Center
02:49PM 44.7215 -88.3127 331° Northwest  Level FlightAware Approximate
02:49PM 44.7842 -88.3681 329° Northwest 197 227 6,100  Level Minneapolis Center
02:50PM 44.7620 -88.3437 331° Northwest  Level FlightAware Approximate
02:50PM 44.8336 -88.4069 331° Northwest 202 232 6,100  Level Minneapolis Center
02:51PM 44.8024 -88.3748 331° Northwest  Level FlightAware Approximate
02:51PM 44.8850 -88.4453 332° Northwest 206 237 6,500  Level Minneapolis Center
02:52PM 44.9347 -88.4842 331° Northwest 205 236 7,200 720 Climbing Minneapolis Center
02:54PM 44.9806 -88.5169 333° Northwest 189 217 8,000 480 Climbing Minneapolis Center
02:55PM 45.0278 -88.5553 330° Northwest 192 221 8,200  Climbing Minneapolis Center
02:56PM 45.0814 -88.5983 330° Northwest 203 234 8,100 -180 Descending Minneapolis Center
02:57PM 45.1325 -88.6400 330° Northwest 211 243 7,900 -180 Descending Minneapolis Center
02:58PM 45.1842 -88.6817 330° Northwest 213 245 7,800  Descending Minneapolis Center
02:59PM 45.2344 -88.7197 332° Northwest 208 239 7,900  Climbing Minneapolis Center
03:00PM 45.2958 -88.7683 331° Northwest 209 241 7,800 -60 Descending Minneapolis Center
03:01PM 45.3469 -88.8081 331° Northwest 209 241 7,800 -180 Level Minneapolis Center
03:02PM 45.3978 -88.8500 330° Northwest 213 245 7,500 -360 Descending Minneapolis Center
03:03PM 45.4506 -88.8928 330° Northwest 217 250 7,100 -360 Descending Minneapolis Center
03:04PM 45.5044 -88.9347 331° Northwest 219 252 6,800 -360 Descending Minneapolis Center
03:05PM 45.5600 -88.9686 337° Northwest 218 251 6,400 -420 Descending Minneapolis Center
03:06PM 45.6122 -89.0147 328° Northwest 220 253 6,000 -360 Descending Minneapolis Center
03:07PM 45.6658 -89.0583 330° Northwest 220 253 5,700 -480 Descending Minneapolis Center
03:08PM 45.7292 -89.1097 330° Northwest 220 253 5,100 -600 Descending Minneapolis Center